Time;durP1;ratioP1;P1;durP2;ratioP2;P2;SDS_P1;SDS_P2;PMS_P1;PMS_P2;Temp;Humidity;BMP_temperature;BMP_pressure;BME280_temperature;BME280_humidity;BME280_pressure;Samples;Min_cycle;Max_cycle;Signal;HPM_P1;HPM_P2
2021/11/21 00:01:33;;;;;;;;;;;;;;;8.42;100.00;100441.66;5093561;28;20029;-75
2021/11/21 00:03:59;;;;;;;;;;;;;;;8.43;100.00;100429.88;5093194;28;20438;-74
2021/11/21 00:06:27;;;;;;;;;;;;;;;8.43;100.00;100428.97;5093254;28;20355;-75
2021/11/21 00:08:53;;;;;;;;;;;;;;;8.46;100.00;100428.78;5093192;28;19935;-75
2021/11/21 00:11:19;;;;;;;;;;;;;;;8.43;100.00;100429.88;5084488;28;19978;-75
2021/11/21 00:13:48;;;;;;;;;;;;;;;8.43;100.00;100429.88;5072639;28;20390;-75
2021/11/21 00:16:15;;;;;;;;;;;;;;;8.43;100.00;100429.88;5072597;28;19959;-75
2021/11/21 00:18:42;;;;;;;;;;;;;;;8.41;100.00;100426.41;5072954;28;20007;-75
2021/11/21 00:21:08;;;;;;;;;;;;;;;8.41;100.00;100414.72;5079361;28;20056;-75
2021/11/21 00:23:35;;;;;;;;;;;;;;;8.41;100.00;100417.44;5093096;28;19994;-73
2021/11/21 00:26:03;;;;;;;;;;;;;;;8.41;100.00;100415.56;5092547;28;20045;-74
2021/11/21 00:28:29;;;;;;;;;;;;;;;8.40;100.00;100430.06;5093025;28;20004;-75
2021/11/21 00:30:55;;;;;;;;;;;;;;;8.38;100.00;100415.81;5092983;28;20015;-74
2021/11/21 00:33:23;;;;;;;;;;;;;;;8.35;100.00;100416.03;5092419;28;19997;-74
2021/11/21 00:35:49;;;;;;;;;;;;;;;8.31;100.00;100409.16;5092666;28;19924;-73
2021/11/21 00:38:15;;;;;;;;;;;;;;;8.29;100.00;100408.41;5092606;28;19960;-75
2021/11/21 00:40:42;;;;;;;;;;;;;;;8.26;100.00;100406.81;5092899;28;19997;-75
2021/11/21 00:43:08;;;;;;;;;;;;;;;8.23;100.00;100398.06;5092765;28;20042;-75
2021/11/21 00:45:34;;;;;;;;;;;;;;;8.24;100.00;100397.09;5092427;28;19970;-75
2021/11/21 00:48:01;;;;;;;;;;;;;;;8.20;100.00;100391.03;5092656;28;20009;-74
2021/11/21 00:50:31;;;;;;;;;;;;;;;8.20;100.00;100385.63;5092407;28;19957;-75
2021/11/21 00:53:01;;;;;;;;;;;;;;;8.19;100.00;100384.78;5095868;28;19924;-75
2021/11/21 00:55:35;;;;;;;;;;;;;;;8.23;100.00;100384.53;5092556;28;19935;-75
2021/11/21 00:58:02;;;;;;;;;;;;;;;8.23;100.00;100388.13;5092518;28;19992;-75
2021/11/21 01:00:30;;;;;;;;;;;;;;;8.20;100.00;100389.22;5092263;28;19938;-75
2021/11/21 01:02:56;;;;;;;;;;;;;;;8.19;100.00;100382.09;5092339;28;20011;-75
2021/11/21 01:05:22;;;;;;;;;;;;;;;8.12;100.00;100378.09;5092068;28;19958;-75
2021/11/21 01:07:50;;;;;;;;;;;;;;;8.08;100.00;100373.91;5091906;28;19977;-75
2021/11/21 01:10:19;;;;;;;;;;;;;;;8.08;100.00;100384.72;5091867;28;20485;-75
2021/11/21 01:12:46;;;;;;;;;;;;;;;8.09;100.00;100378.34;5071672;28;19998;-75
2021/11/21 01:15:14;;;;;;;;;;;;;;;8.11;100.00;100372.81;5071757;28;19982;-75
2021/11/21 01:17:41;;;;;;;;;;;;;;;8.12;100.00;100369.16;5071831;28;20340;-75
2021/11/21 01:20:08;;;;;;;;;;;;;;;8.13;100.00;100363.63;5071574;28;20070;-75
2021/11/21 01:22:35;;;;;;;;;;;;;;;8.15;100.00;100344.56;5071850;28;19942;-75
2021/11/21 01:25:03;;;;;;;;;;;;;;;8.13;100.00;100362.75;5070905;28;19959;-75
2021/11/21 01:27:30;;;;;;;;;;;;;;;8.13;100.00;100347.38;5071581;28;19963;-74
2021/11/21 01:29:56;;;;;;;;;;;;;;;8.12;100.00;100350.22;5071631;28;19935;-75
2021/11/21 01:32:22;;;;;;;;;;;;;;;8.13;100.00;100341.97;5071521;28;20245;-74
2021/11/21 01:34:50;;;;;;;;;;;;;;;8.15;100.00;100348.16;5071718;28;20296;-74
2021/11/21 01:37:16;;;;;;;;;;;;;;;8.14;100.00;100343.72;5070962;28;20049;-74
2021/11/21 01:39:42;;;;;;;;;;;;;;;8.16;100.00;100346.28;5071669;28;20353;-74
2021/11/21 01:42:10;;;;;;;;;;;;;;;8.15;100.00;100337.34;5071030;28;20277;-75
2021/11/21 01:44:37;;;;;;;;;;;;;;;8.17;100.00;100329.09;5071509;28;19925;-75
2021/11/21 01:47:05;;;;;;;;;;;;;;;8.18;100.00;100325.41;5071278;28;20011;-75
2021/11/21 01:49:31;;;;;;;;;;;;;;;8.17;100.00;100324.53;5071262;28;19963;-75
2021/11/21 01:51:57;;;;;;;;;;;;;;;8.19;100.00;100317.19;5053601;28;19935;-74
2021/11/21 01:54:24;;;;;;;;;;;;;;;8.19;100.00;100314.47;5071185;28;20049;-74
2021/11/21 01:56:50;;;;;;;;;;;;;;;8.20;100.00;100310.81;5071288;28;19962;-75
2021/11/21 01:59:18;;;;;;;;;;;;;;;8.19;100.00;100303.66;5071197;28;19931;-75
2021/11/21 02:01:44;;;;;;;;;;;;;;;8.20;100.00;100299.09;5053108;28;20034;-75
2021/11/21 02:04:11;;;;;;;;;;;;;;;8.20;100.00;100293.69;5071335;28;19959;-75
2021/11/21 02:06:37;;;;;;;;;;;;;;;8.20;100.00;100291.88;5070835;28;20045;-74
2021/11/21 02:09:04;;;;;;;;;;;;;;;8.19;100.00;100282.03;5071258;28;19970;-74
2021/11/21 02:11:31;;;;;;;;;;;;;;;8.19;100.00;100281.16;5082076;28;20065;-74
2021/11/21 02:13:58;;;;;;;;;;;;;;;8.18;100.00;100280.31;5095942;28;20015;-74
2021/11/21 02:16:27;;;;;;;;;;;;;;;8.17;100.00;100275.03;5095456;28;19957;-74
2021/11/21 02:18:53;;;;;;;;;;;;;;;8.15;100.00;100269.75;5094830;28;20023;-75
2021/11/21 02:21:21;;;;;;;;;;;;;;;8.14;100.00;100261.75;5095488;28;20037;-74
2021/11/21 02:23:49;;;;;;;;;;;;;;;8.14;100.00;100246.38;5095160;28;19962;-74
2021/11/21 02:26:17;;;;;;;;;;;;;;;8.16;100.00;100248.97;5090908;28;20414;-74
2021/11/21 02:28:44;;;;;;;;;;;;;;;8.17;100.00;100246.13;5087442;28;19982;-75
2021/11/21 02:31:11;;;;;;;;;;;;;;;8.20;100.00;100239.63;5088393;28;20057;-75
2021/11/21 02:33:38;;;;;;;;;;;;;;;8.22;100.00;100245.78;5095107;28;19952;-74
2021/11/21 02:36:06;;;;;;;;;;;;;;;8.23;100.00;100238.53;5094859;28;20029;-75
2021/11/21 02:38:34;;;;;;;;;;;;;;;8.22;100.00;100234.97;5095291;28;19962;-74
2021/11/21 02:41:01;;;;;;;;;;;;;;;8.20;100.00;100228.81;5095132;28;19935;-75
2021/11/21 02:43:28;;;;;;;;;;;;;;;8.19;100.00;100222.56;5095348;28;20049;-75
2021/11/21 02:45:55;;;;;;;;;;;;;;;8.20;100.00;100218.88;5093854;28;20422;-75
2021/11/21 02:48:23;;;;;;;;;;;;;;;8.20;100.00;100229.69;5094970;28;20030;-75
2021/11/21 02:50:49;;;;;;;;;;;;;;;8.19;100.00;100219.84;5095382;28;19963;-74
2021/11/21 02:53:16;;;;;;;;;;;;;;;8.19;100.00;100217.16;5095138;28;19986;-75
2021/11/21 02:55:44;;;;;;;;;;;;;;;8.19;100.00;100216.25;5094981;28;20014;-74
2021/11/21 02:58:11;;;;;;;;;;;;;;;8.17;100.00;100213.69;5094626;28;20414;-74
2021/11/21 03:00:39;;;;;;;;;;;;;;;8.15;100.00;100226.47;5095070;28;20337;-74
2021/11/21 03:03:06;;;;;;;;;;;;;;;8.14;100.00;100213.94;5095090;28;19986;-75
2021/11/21 03:05:33;;;;;;;;;;;;;;;8.16;100.00;100212.00;5094588;28;20001;-75
2021/11/21 03:07:59;;;;;;;;;;;;;;;8.16;100.00;100211.13;5076897;28;19958;-75
2021/11/21 03:10:27;;;;;;;;;;;;;;;8.16;100.00;100212.00;5094697;28;20014;-75
2021/11/21 03:12:56;;;;;;;;;;;;;;;8.18;100.00;100204.59;5096514;28;19950;-74
2021/11/21 03:15:23;;;;;;;;;;;;;;;8.18;100.00;100211.88;5079697;28;20057;-74
2021/11/21 03:17:50;;;;;;;;;;;;;;;8.15;100.00;100202.16;5094634;28;20531;-75
2021/11/21 03:20:19;;;;;;;;;;;;;;;8.15;100.00;100202.16;5094887;28;20001;-74
2021/11/21 03:22:46;;;;;;;;;;;;;;;8.16;100.00;100209.28;5097715;28;20049;-73
2021/11/21 03:25:13;;;;;;;;;;;;;;;8.15;100.00;100199.44;5099799;28;20049;-74
2021/11/21 03:27:39;;;;;;;;;;;;;;;8.11;100.00;100197.09;5094989;28;20041;-74
2021/11/21 03:30:08;;;;;;;;;;;;;;;8.13;100.00;100201.41;5094879;28;19962;-75
2021/11/21 03:32:34;;;;;;;;;;;;;;;8.11;100.00;100191.69;5094425;28;19994;-74
2021/11/21 03:35:00;;;;;;;;;;;;;;;8.11;100.00;100199.78;5094052;28;20426;-74
2021/11/21 03:37:27;;;;;;;;;;;;;;;8.10;100.00;100198.09;5094238;28;20350;-74
2021/11/21 03:39:53;;;;;;;;;;;;;;;8.05;100.00;100198.44;5093974;28;19984;-75
2021/11/21 03:42:20;;;;;;;;;;;;;;;8.06;100.00;100192.06;5094183;28;19935;-75
2021/11/21 03:44:46;;;;;;;;;;;;;;;8.03;100.00;100193.16;5094707;28;19930;-74
2021/11/21 03:47:14;;;;;;;;;;;;;;;8.00;100.00;100195.25;5095349;28;19996;-75
2021/11/21 03:49:40;;;;;;;;;;;;;;;8.00;100.00;100196.13;5094228;28;20473;-75
2021/11/21 03:52:07;;;;;;;;;;;;;;;8.00;100.00;100188.00;5093685;28;19996;-75
2021/11/21 03:54:33;;;;;;;;;;;;;;;8.02;100.00;100188.75;5093979;28;20010;-74
2021/11/21 03:56:59;;;;;;;;;;;;;;;8.01;100.00;100186.16;5093383;28;20057;-74
2021/11/21 03:59:25;;;;;;;;;;;;;;;7.99;100.00;100182.69;5093922;28;20480;-74
2021/11/21 04:01:54;;;;;;;;;;;;;;;7.97;100.00;100192.78;5093890;28;19993;-75
2021/11/21 04:04:22;;;;;;;;;;;;;;;7.95;100.00;100186.63;5093448;28;19988;-75
2021/11/21 04:06:48;;;;;;;;;;;;;;;7.94;100.00;100190.34;5075525;28;19950;-75
2021/11/21 04:09:14;;;;;;;;;;;;;;;7.96;100.00;100183.81;5093314;28;20012;-75
2021/11/21 04:11:41;;;;;;;;;;;;;;;7.94;100.00;100176.81;5093729;28;19999;-74
2021/11/21 04:14:07;;;;;;;;;;;;;;;7.95;100.00;100176.69;5093335;28;19994;-75
2021/11/21 04:16:33;;;;;;;;;;;;;;;7.95;100.00;100174.00;5093152;28;20053;-75
2021/11/21 04:18:59;;;;;;;;;;;;;;;7.95;100.00;100175.81;5093384;28;20019;-74
2021/11/21 04:21:27;;;;;;;;;;;;;;;7.88;100.00;100170.91;5093032;28;19956;-74
2021/11/21 04:23:54;;;;;;;;;;;;;;;7.86;100.00;100172.03;5074780;28;19971;-74
2021/11/21 04:26:20;;;;;;;;;;;;;;;7.84;100.00;100169.44;5092557;28;20431;-75
2021/11/21 04:28:46;;;;;;;;;;;;;;;7.86;100.00;100164.75;5075390;28;20021;-75
2021/11/21 04:31:12;;;;;;;;;;;;;;;7.82;100.00;100167.84;5093179;28;19974;-75
2021/11/21 04:33:39;;;;;;;;;;;;;;;7.78;100.00;100164.50;5092851;28;19946;-75
2021/11/21 04:36:05;;;;;;;;;;;;;;;7.75;100.00;100158.47;5092711;28;20371;-75
2021/11/21 04:38:33;;;;;;;;;;;;;;;7.71;100.00;100149.78;5092681;28;19939;-74
2021/11/21 04:41:00;;;;;;;;;;;;;;;7.69;100.00;100155.28;5093086;28;20377;-75
2021/11/21 04:43:26;;;;;;;;;;;;;;;7.70;100.00;100151.59;5092789;28;19970;-75
2021/11/21 04:45:53;;;;;;;;;;;;;;;7.72;100.00;100140.66;5092671;28;20096;-75
2021/11/21 04:48:19;;;;;;;;;;;;;;;7.72;100.00;100137.97;5092846;28;19932;-74
2021/11/21 04:50:45;;;;;;;;;;;;;;;7.71;100.00;100134.41;5092574;28;19945;-75
2021/11/21 04:53:12;;;;;;;;;;;;;;;7.71;100.00;100137.13;5092827;28;19974;-75
2021/11/21 04:55:39;;;;;;;;;;;;;;;7.69;100.00;100147.16;5092356;28;20201;-75
2021/11/21 04:58:06;;;;;;;;;;;;;;;7.68;100.00;100141.88;5092756;28;19924;-74
2021/11/21 05:00:32;;;;;;;;;;;;;;;7.65;100.00;100142.13;5092578;28;20057;-75
2021/11/21 05:02:59;;;;;;;;;;;;;;;7.64;100.00;100135.88;5092528;28;19970;-75
2021/11/21 05:05:25;;;;;;;;;;;;;;;7.67;100.00;100140.16;5092367;28;20057;-75
2021/11/21 05:07:52;;;;;;;;;;;;;;;7.66;100.00;100142.00;5092260;28;20411;-75
2021/11/21 05:10:20;;;;;;;;;;;;;;;7.63;100.00;100133.28;5092529;28;20032;-74
2021/11/21 05:12:49;;;;;;;;;;;;;;;7.64;100.00;100129.59;5074087;28;20307;-75
2021/11/21 05:15:17;;;;;;;;;;;;;;;7.63;100.00;100126.06;5092176;28;20060;-75
2021/11/21 05:17:45;;;;;;;;;;;;;;;7.64;100.00;100130.47;5092347;28;19963;-75
2021/11/21 05:20:12;;;;;;;;;;;;;;;7.63;100.00;100126.06;5092143;28;19934;-75
2021/11/21 05:22:38;;;;;;;;;;;;;;;7.61;100.00;100117.19;5093477;28;20431;-76
2021/11/21 05:25:05;;;;;;;;;;;;;;;7.59;100.00;100118.28;5092633;28;20019;-75
2021/11/21 05:27:32;;;;;;;;;;;;;;;7.59;100.00;100112.88;5094852;28;19958;-75
2021/11/21 05:29:59;;;;;;;;;;;;;;;7.60;100.00;100122.72;5093492;28;20019;-75
2021/11/21 05:32:26;;;;;;;;;;;;;;;7.58;100.00;100119.31;5093696;28;20427;-75
2021/11/21 05:34:53;;;;;;;;;;;;;;;7.55;100.00;100123.09;5093989;28;19935;-75
2021/11/21 05:37:19;;;;;;;;;;;;;;;7.51;100.00;100125.16;5092818;28;19954;-75
2021/11/21 05:39:46;;;;;;;;;;;;;;;7.50;100.00;100126.16;5093291;28;20472;-74
2021/11/21 05:42:12;;;;;;;;;;;;;;;7.47;100.00;100118.28;5092403;28;20019;-74
2021/11/21 05:44:38;;;;;;;;;;;;;;;7.47;100.00;100122.81;5092814;28;20021;-75
2021/11/21 05:47:06;;;;;;;;;;;;;;;7.43;100.00;100122.22;5092191;28;19962;-73
2021/11/21 05:49:32;;;;;;;;;;;;;;;7.38;100.00;100119.84;5092078;28;20014;-74
2021/11/21 05:51:59;;;;;;;;;;;;;;;7.37;100.00;100128.06;5091988;28;19981;-75
2021/11/21 05:54:25;;;;;;;;;;;;;;;7.30;100.00;100124.13;5091645;28;20017;-75
2021/11/21 05:56:52;;;;;;;;;;;;;;;7.24;100.00;100130.00;5091658;28;20468;-75
2021/11/21 05:59:19;;;;;;;;;;;;;;;7.19;100.00;100125.81;5091770;28;19958;-75
2021/11/21 06:01:46;;;;;;;;;;;;;;;7.19;100.00;100120.41;5091610;28;19942;-75
2021/11/21 06:04:13;;;;;;;;;;;;;;;7.18;100.00;100113.28;5091771;28;20404;-75
2021/11/21 06:06:40;;;;;;;;;;;;;;;7.17;100.00;100110.72;5091237;28;20452;-75
2021/11/21 06:09:06;;;;;;;;;;;;;;;7.18;100.00;100113.28;5091841;28;20011;-75
2021/11/21 06:11:32;;;;;;;;;;;;;;;7.17;100.00;100116.13;5091457;28;20276;-75
2021/11/21 06:13:59;;;;;;;;;;;;;;;7.16;100.00;100115.25;5090714;28;19993;-75
2021/11/21 06:16:25;;;;;;;;;;;;;;;7.12;100.00;100105.69;5090909;28;20058;-75
2021/11/21 06:18:51;;;;;;;;;;;;;;;7.16;100.00;100103.59;5090421;28;20338;-75
2021/11/21 06:21:19;;;;;;;;;;;;;;;7.14;100.00;100094.75;5090540;28;20033;-74
2021/11/21 06:23:45;;;;;;;;;;;;;;;7.11;100.00;100086.88;5091104;28;20015;-75
2021/11/21 06:26:13;;;;;;;;;;;;;;;7.12;100.00;100102.09;5090547;28;20374;-75
2021/11/21 06:28:39;;;;;;;;;;;;;;;7.16;100.00;100093.66;5080085;28;19942;-74
2021/11/21 06:31:06;;;;;;;;;;;;;;;7.18;100.00;100093.53;5090927;28;20128;-75
2021/11/21 06:33:32;;;;;;;;;;;;;;;7.20;100.00;100089.75;5091153;28;20026;-75
2021/11/21 06:35:58;;;;;;;;;;;;;;;7.20;100.00;100100.56;5091147;28;20057;-75
2021/11/21 06:38:26;;;;;;;;;;;;;;;7.24;100.00;100098.44;5090743;28;19977;-74
2021/11/21 06:40:52;;;;;;;;;;;;;;;7.26;100.00;100104.59;5074146;28;19989;-75
2021/11/21 06:43:18;;;;;;;;;;;;;;;7.29;100.00;100098.13;5090644;28;20464;-75
2021/11/21 06:45:45;;;;;;;;;;;;;;;7.32;100.00;100103.25;5090559;28;20069;-75
2021/11/21 06:48:12;;;;;;;;;;;;;;;7.33;100.00;100100.44;5090919;28;19951;-75
2021/11/21 06:50:39;;;;;;;;;;;;;;;7.32;100.00;100095.16;5090991;28;19985;-75
2021/11/21 06:53:05;;;;;;;;;;;;;;;7.31;100.00;100110.50;5091191;28;19931;-75
2021/11/21 06:55:33;;;;;;;;;;;;;;;7.30;100.00;100106.09;5074890;28;19938;-75
2021/11/21 06:57:59;;;;;;;;;;;;;;;7.29;100.00;100111.63;5091631;28;19978;-75
2021/11/21 07:00:26;;;;;;;;;;;;;;;7.32;100.00;100104.16;5094599;28;20575;-75
2021/11/21 07:02:52;;;;;;;;;;;;;;;7.32;100.00;100103.25;5094466;28;20010;-75
2021/11/21 07:05:18;;;;;;;;;;;;;;;7.30;100.00;100111.50;5094477;28;19928;-74
2021/11/21 07:07:45;;;;;;;;;;;;;;;7.26;100.00;100120.81;5094383;28;20345;-75
2021/11/21 07:10:12;;;;;;;;;;;;;;;7.25;100.00;100112.84;5076435;28;19959;-75
2021/11/21 07:12:40;;;;;;;;;;;;;;;7.17;100.00;100116.97;5094525;28;19966;-76
2021/11/21 07:15:07;;;;;;;;;;;;;;;7.14;100.00;100113.66;5094092;28;19935;-76
2021/11/21 07:17:33;;;;;;;;;;;;;;;7.11;100.00;100122.84;5093975;28;19966;-75
2021/11/21 07:19:59;;;;;;;;;;;;;;;7.10;100.00;100117.56;5094120;28;20412;-76
2021/11/21 07:22:26;;;;;;;;;;;;;;;7.11;100.00;100122.84;5075620;28;20068;-75
2021/11/21 07:24:52;;;;;;;;;;;;;;;7.08;100.00;100116.81;5094359;28;20015;-76
2021/11/21 07:27:18;;;;;;;;;;;;;;;7.01;100.00;100114.56;5092832;28;19931;-75
2021/11/21 07:29:46;;;;;;;;;;;;;;;7.01;100.00;100113.72;5094303;28;19985;-76
2021/11/21 07:32:12;;;;;;;;;;;;;;;7.02;100.00;100115.44;5094146;28;20057;-76
2021/11/21 07:34:38;;;;;;;;;;;;;;;7.01;100.00;100113.72;5093820;28;20037;-75
2021/11/21 07:37:05;;;;;;;;;;;;;;;7.03;100.00;100119.88;5093841;28;20117;-76
2021/11/21 07:39:31;;;;;;;;;;;;;;;7.01;100.00;100124.53;5093268;28;19966;-76
2021/11/21 07:41:57;;;;;;;;;;;;;;;6.96;100.00;100122.19;5094116;28;19963;-75
2021/11/21 07:44:25;;;;;;;;;;;;;;;6.94;100.00;100128.66;5058861;28;19951;-75
2021/11/21 07:46:53;;;;;;;;;;;;;;;6.93;100.00;100129.63;5093433;28;19994;-75
2021/11/21 07:49:19;;;;;;;;;;;;;;;6.90;100.00;100133.44;5093927;28;20330;-75
2021/11/21 07:51:47;;;;;;;;;;;;;;;6.89;100.00;100136.25;5093268;28;19985;-76
2021/11/21 07:54:13;;;;;;;;;;;;;;;6.85;100.00;100132.91;5093854;28;19924;-75
2021/11/21 07:56:40;;;;;;;;;;;;;;;6.86;100.00;100140.88;5093262;28;19968;-75
2021/11/21 07:59:06;;;;;;;;;;;;;;;6.86;100.00;100148.13;5093220;28;20405;-75
2021/11/21 08:01:32;;;;;;;;;;;;;;;6.84;100.00;100148.25;5093615;28;19928;-75
2021/11/21 08:04:00;;;;;;;;;;;;;;;6.86;100.00;100148.97;5093044;28;19928;-75
2021/11/21 08:06:26;;;;;;;;;;;;;;;6.89;100.00;100149.75;5093471;28;19924;-76
2021/11/21 08:08:52;;;;;;;;;;;;;;;6.89;100.00;100150.59;5092769;28;19939;-75
2021/11/21 08:11:19;;;;;;;;;;;;;;;6.85;100.00;100144.59;5092864;28;20026;-76
2021/11/21 08:13:45;;;;;;;;;;;;;;;6.84;100.00;100150.94;5075647;28;20034;-76
2021/11/21 08:16:11;;;;;;;;;;;;;;;6.84;100.00;100156.34;5092661;28;19981;-76
2021/11/21 08:18:38;;;;;;;;;;;;;;;6.83;100.00;100160.00;5092928;28;19989;-76
2021/11/21 08:21:05;;;;;;;;;;;;;;;6.82;100.00;100152.88;5093314;28;20451;-76
2021/11/21 08:23:31;;;;;;;;;;;;;;;6.84;100.00;100147.38;5092157;28;20022;-75
2021/11/21 08:25:58;;;;;;;;;;;;;;;6.89;100.00;100145.19;5092489;28;20418;-75
2021/11/21 08:28:24;;;;;;;;;;;;;;;6.88;100.00;100148.84;5072021;28;20016;-74
2021/11/21 08:30:50;;;;;;;;;;;;;;;6.89;100.00;100155.13;5074116;28;20025;-73
2021/11/21 08:33:17;;;;;;;;;;;;;;;6.93;100.00;100162.03;5093719;28;20362;-75
2021/11/21 08:35:43;;;;;;;;;;;;;;;6.95;100.00;100157.34;5092131;28;20060;-75
2021/11/21 08:38:10;;;;;;;;;;;;;;;6.92;100.00;100161.16;5093088;28;20018;-75
2021/11/21 08:40:37;;;;;;;;;;;;;;;7.00;100.00;100152.47;5092560;28;20027;-76
2021/11/21 08:43:03;;;;;;;;;;;;;;;6.97;100.00;100163.50;5088265;28;20049;-75
2021/11/21 08:45:32;;;;;;;;;;;;;;;6.97;100.00;100153.56;5092346;28;19963;-75
2021/11/21 08:47:59;;;;;;;;;;;;;;;7.04;100.00;100156.66;5092026;28;19989;-75
2021/11/21 08:50:25;;;;;;;;;;;;;;;7.08;100.00;100160.88;5092288;28;19932;-75
2021/11/21 08:52:51;;;;;;;;;;;;;;;7.16;100.00;100162.97;5091698;28;20025;-74
2021/11/21 08:55:19;;;;;;;;;;;;;;;7.18;100.00;100156.47;5079218;28;20018;-75
2021/11/21 08:57:46;;;;;;;;;;;;;;;7.23;100.00;100157.97;5088874;28;19966;-75
2021/11/21 09:00:13;;;;;;;;;;;;;;;7.15;100.00;100156.72;5084785;28;19946;-75
2021/11/21 09:02:40;;;;;;;;;;;;;;;7.11;100.00;100152.53;5090507;28;19963;-75
2021/11/21 09:05:07;;;;;;;;;;;;;;;7.09;100.00;100157.19;5088925;28;20414;-75
2021/11/21 09:07:34;;;;;;;;;;;;;;;7.07;100.00;100164.53;5089288;28;20423;-75
2021/11/21 09:10:00;;;;;;;;;;;;;;;7.01;100.00;100160.44;5085508;28;19963;-76
2021/11/21 09:12:27;;;;;;;;;;;;;;;6.97;100.00;100158.97;5089667;28;19962;-75
2021/11/21 09:14:54;;;;;;;;;;;;;;;6.98;100.00;100165.25;5089630;28;20056;-76
2021/11/21 09:17:20;;;;;;;;;;;;;;;7.02;100.00;100166.72;5089470;28;19963;-74
2021/11/21 09:19:46;;;;;;;;;;;;;;;7.01;100.00;100160.44;5089803;28;20420;-73
2021/11/21 09:22:13;;;;;;;;;;;;;;;7.09;100.00;100162.56;5085529;28;20049;-74
2021/11/21 09:24:39;;;;;;;;;;;;;;;7.11;100.00;100159.75;5073855;28;19932;-74
2021/11/21 09:27:07;;;;;;;;;;;;;;;7.12;100.00;100161.50;5071165;28;19978;-75
2021/11/21 09:29:35;;;;;;;;;;;;;;;7.12;100.00;100162.38;5071054;28;20340;-74
2021/11/21 09:32:01;;;;;;;;;;;;;;;7.16;100.00;100162.97;5071557;28;20450;-75
2021/11/21 09:34:27;;;;;;;;;;;;;;;7.17;100.00;100160.16;5053086;28;20010;-74
2021/11/21 09:36:53;;;;;;;;;;;;;;;7.25;100.00;100156.88;5071129;28;19986;-75
2021/11/21 09:39:20;;;;;;;;;;;;;;;7.28;100.00;100162.06;5071291;28;20052;-74
2021/11/21 09:41:46;;;;;;;;;;;;;;;7.32;100.00;100163.53;5071012;28;19960;-75
2021/11/21 09:44:14;;;;;;;;;;;;;;;7.45;100.00;100149.09;5053282;28;20380;-75
2021/11/21 09:46:42;;;;;;;;;;;;;;;7.46;100.00;100143.56;5069210;28;19930;-75
2021/11/21 09:49:10;;;;;;;;;;;;;;;7.50;100.00;100142.34;5071204;28;20449;-74
2021/11/21 09:51:36;;;;;;;;;;;;;;;7.54;100.00;100143.81;5076158;28;19938;-74
2021/11/21 09:54:02;;;;;;;;;;;;;;;7.56;100.00;100140.16;5091000;28;20018;-75
2021/11/21 09:56:30;;;;;;;;;;;;;;;7.50;100.00;100149.59;5079232;28;20014;-74
2021/11/21 09:58:56;;;;;;;;;;;;;;;7.47;100.00;100142.59;5082385;28;19928;-74
2021/11/21 10:01:35;;;;;;;;;;;;;;;7.45;100.00;100149.94;5084527;28;20057;-75
2021/11/21 10:04:03;;;;;;;;;;;;;;;7.44;100.00;100150.06;5086513;28;19989;-75
2021/11/21 10:06:30;;;;;;;;;;;;;;;7.43;100.00;100146.50;5090651;28;19947;-75
2021/11/21 10:08:56;;;;;;;;;;;;;;;7.42;100.00;100147.47;5090560;28;20352;-75
2021/11/21 10:11:23;;;;;;;;;;;;;;;7.44;100.00;100147.38;5090834;28;20004;-75
2021/11/21 10:13:53;;;;;;;;;;;;;;;7.45;100.00;100144.53;5091228;28;20056;-74
2021/11/21 10:16:21;;;;;;;;;;;;;;;7.45;100.00;100141.84;5090667;28;19951;-74
2021/11/21 10:18:49;;;;;;;;;;;;;;;7.45;100.00;100141.00;5090993;28;19935;-75
2021/11/21 10:21:18;;;;;;;;;;;;;;;7.45;100.00;100139.13;5091188;28;20487;-76
2021/11/21 10:23:44;;;;;;;;;;;;;;;7.47;100.00;100139.00;5090301;28;20021;-75
2021/11/21 10:26:19;;;;;;;;;;;;;;;7.48;100.00;100138.03;5090501;28;20364;-74
2021/11/21 10:28:45;;;;;;;;;;;;;;;7.45;100.00;100135.59;5090394;28;20020;-74
2021/11/21 10:31:13;;;;;;;;;;;;;;;7.47;100.00;100141.72;5090873;28;20057;-75
2021/11/21 10:33:42;;;;;;;;;;;;;;;7.51;100.00;100133.28;5093155;28;19955;-75
2021/11/21 10:36:09;;;;;;;;;;;;;;;7.60;100.00;100139.78;5093805;28;20408;-75
2021/11/21 10:38:39;;;;;;;;;;;;;;;7.66;100.00;100141.16;5091747;28;19931;-75
2021/11/21 10:41:07;;;;;;;;;;;;;;;7.68;100.00;100133.78;5094219;28;20057;-75
2021/11/21 10:43:40;;;;;;;;;;;;;;;7.71;100.00;100136.25;5075894;28;20029;-75
2021/11/21 10:46:19;;;;;;;;;;;;;;;7.77;100.00;100132.22;5093982;28;19992;-75
2021/11/21 10:48:45;;;;;;;;;;;;;;;7.86;100.00;100139.59;5092346;28;20015;-75
2021/11/21 10:51:18;;;;;;;;;;;;;;;7.86;100.00;100142.28;5094000;28;19941;-75
2021/11/21 10:53:46;;;;;;;;;;;;;;;7.88;100.00;100148.41;5093683;28;20385;-75
2021/11/21 10:56:12;;;;;;;;;;;;;;;7.92;100.00;100140.94;5093709;28;19934;-76
2021/11/21 10:58:43;;;;;;;;;;;;;;;7.97;100.00;100145.00;5094376;28;20017;-75
2021/11/21 11:01:18;;;;;;;;;;;;;;;7.95;100.00;100149.69;5093036;28;19939;-75
2021/11/21 11:03:46;;;;;;;;;;;;;;;7.95;100.00;100138.88;5093527;28;20041;-75
2021/11/21 11:06:26;;;;;;;;;;;;;;;7.93;100.00;100145.38;5092761;28;20063;-75
2021/11/21 11:08:53;;;;;;;;;;;;;;;7.90;100.00;100142.88;5092145;28;19954;-75
2021/11/21 11:11:20;;;;;;;;;;;;;;;7.88;100.00;100148.41;5094112;28;20015;-75
2021/11/21 11:13:47;;;;;;;;;;;;;;;7.97;100.00;100152.25;5093999;28;20029;-76
2021/11/21 11:16:14;;;;;;;;;;;;;;;7.95;100.00;100140.69;5093470;28;19938;-76
2021/11/21 11:18:40;;;;;;;;;;;;;;;7.99;100.00;100150.25;5093348;28;20049;-75
2021/11/21 11:21:10;;;;;;;;;;;;;;;8.15;100.00;100148.09;5093622;28;20027;-76
2021/11/21 11:23:38;;;;;;;;;;;;;;;8.20;100.00;100147.69;5092641;28;20015;-75
2021/11/21 11:26:07;;;;;;;;;;;;;;;8.26;100.00;100149.91;5092824;28;20458;-75
2021/11/21 11:28:34;;;;;;;;;;;;;;;8.21;100.00;100146.72;5093475;28;20019;-75
2021/11/21 11:31:19;;;;;;;;;;;;;;;8.19;100.00;100146.84;5092538;28;20389;-75
2021/11/21 11:33:46;;;;;;;;;;;;;;;8.21;100.00;100144.84;5083018;28;19952;-75
2021/11/21 11:36:19;;;;;;;;;;;;;;;8.25;100.00;100150.88;5086726;28;20011;-75
2021/11/21 11:38:57;;;;;;;;;;;;;;;8.25;100.00;100144.63;5090811;28;20027;-75
2021/11/21 11:41:29;;;;;;;;;;;;;;;8.28;100.00;100147.09;5093438;28;19999;-75
2021/11/21 11:43:55;;;;;;;;;;;;;;;8.29;100.00;100146.94;5091806;28;20045;-75
2021/11/21 11:46:29;;;;;;;;;;;;;;;8.38;100.00;100140.81;5093268;28;20018;-76
2021/11/21 11:48:57;;;;;;;;;;;;;;;8.41;100.00;100144.25;5092973;28;19986;-75
2021/11/21 11:51:48;;;;;;;;;;;;;;;8.48;100.00;100140.09;5092804;28;19990;-75
2021/11/21 11:54:23;;;;;;;;;;;;;;;8.61;100.00;100143.50;5075136;28;19938;-75
2021/11/21 11:56:52;;;;;;;;;;;;;;;8.79;100.00;100143.84;5092274;28;19959;-75
2021/11/21 11:59:26;;;;;;;;;;;;;;;8.95;100.00;100138.00;5093345;28;19967;-76
2021/11/21 12:01:53;;;;;;;;;;;;;;;9.05;100.00;100138.09;5093027;28;20013;-75
2021/11/21 12:04:38;;;;;;;;;;;;;;;9.12;100.00;100131.16;5093588;28;19945;-76
2021/11/21 12:07:19;;;;;;;;;;;;;;;9.12;100.00;100138.44;5092689;28;20048;-75
2021/11/21 12:09:57;;;;;;;;;;;;;;;8.96;100.00;100139.69;5092968;28;20027;-75
2021/11/21 12:12:44;;;;;;;;;;;;;;;8.95;100.00;100143.44;5093331;28;19931;-75
2021/11/21 12:15:25;;;;;;;;;;;;;;;8.99;100.00;100144.00;5092194;28;19935;-75
2021/11/21 12:17:53;;;;;;;;;;;;;;;8.93;100.00;100144.53;5092995;28;19966;-75
2021/11/21 12:20:39;;;;;;;;;;;;;;;8.91;100.00;100149.22;5091912;28;19939;-75
2021/11/21 12:23:05;;;;;;;;;;;;;;;8.87;100.00;100140.47;5093143;28;20001;-75
2021/11/21 12:25:32;;;;;;;;;;;;;;;8.83;100.00;100137.19;5091901;28;19959;-75
2021/11/21 12:28:01;;;;;;;;;;;;;;;8.77;100.00;100140.38;5074564;28;19962;-75
2021/11/21 12:30:28;;;;;;;;;;;;;;;8.82;100.00;100140.88;5091344;28;19970;-75
2021/11/21 12:32:57;;;;;;;;;;;;;;;8.86;100.00;100145.03;5092357;28;19967;-75
2021/11/21 12:35:24;;;;;;;;;;;;;;;8.87;100.00;100145.88;5092446;28;19938;-74
2021/11/21 12:37:51;;;;;;;;;;;;;;;8.87;100.00;100141.34;5092076;28;19956;-75